sensor_id;sensor_type;location;lat;lon;timestamp;temperature;humidity
22249;DHT22;67538;52.180;5.646;2023-07-08T00:00:21;18.20;99.90
22249;DHT22;67538;52.180;5.646;2023-07-08T00:02:48;18.20;99.90
22249;DHT22;67538;52.180;5.646;2023-07-08T00:05:17;18.30;99.90
22249;DHT22;67538;52.180;5.646;2023-07-08T00:07:45;18.40;99.90
22249;DHT22;67538;52.180;5.646;2023-07-08T00:10:17;18.40;99.90
22249;DHT22;67538;52.180;5.646;2023-07-08T00:12:47;18.40;99.90
22249;DHT22;67538;52.180;5.646;2023-07-08T00:15:14;18.40;99.90
22249;DHT22;67538;52.180;5.646;2023-07-08T00:17:42;18.30;99.90
22249;DHT22;67538;52.180;5.646;2023-07-08T00:20:12;18.10;99.90
22249;DHT22;67538;52.180;5.646;2023-07-08T00:22:41;18.00;99.90
22249;DHT22;67538;52.180;5.646;2023-07-08T00:25:09;18.00;99.90
22249;DHT22;67538;52.180;5.646;2023-07-08T00:27:37;17.90;99.90
22249;DHT22;67538;52.180;5.646;2023-07-08T00:30:18;17.80;99.90
22249;DHT22;67538;52.180;5.646;2023-07-08T00:32:46;17.80;99.90
22249;DHT22;67538;52.180;5.646;2023-07-08T00:35:13;17.80;99.90
22249;DHT22;67538;52.180;5.646;2023-07-08T00:37:40;17.80;99.90
22249;DHT22;67538;52.180;5.646;2023-07-08T00:40:15;17.80;99.90
22249;DHT22;67538;52.180;5.646;2023-07-08T00:42:45;17.90;99.90
22249;DHT22;67538;52.180;5.646;2023-07-08T00:45:21;17.80;99.90
22249;DHT22;67538;52.180;5.646;2023-07-08T00:47:50;17.80;99.90
22249;DHT22;67538;52.180;5.646;2023-07-08T00:50:18;17.80;99.90
22249;DHT22;67538;52.180;5.646;2023-07-08T00:52:46;17.80;99.90
22249;DHT22;67538;52.180;5.646;2023-07-08T00:55:13;17.80;99.90
22249;DHT22;67538;52.180;5.646;2023-07-08T00:57:44;17.90;99.90
22249;DHT22;67538;52.180;5.646;2023-07-08T01:00:15;18.00;99.90
22249;DHT22;67538;52.180;5.646;2023-07-08T01:02:50;17.90;99.90
22249;DHT22;67538;52.180;5.646;2023-07-08T01:05:22;18.00;99.90
22249;DHT22;67538;52.180;5.646;2023-07-08T01:07:56;18.00;99.90
22249;DHT22;67538;52.180;5.646;2023-07-08T01:10:27;18.00;99.90
22249;DHT22;67538;52.180;5.646;2023-07-08T01:13:00;18.00;99.90
22249;DHT22;67538;52.180;5.646;2023-07-08T01:15:33;18.10;99.90
22249;DHT22;67538;52.180;5.646;2023-07-08T01:18:02;18.20;99.90
22249;DHT22;67538;52.180;5.646;2023-07-08T01:20:30;18.20;99.90
22249;DHT22;67538;52.180;5.646;2023-07-08T01:22:58;18.20;99.90
22249;DHT22;67538;52.180;5.646;2023-07-08T01:25:26;18.30;99.90
22249;DHT22;67538;52.180;5.646;2023-07-08T01:27:55;18.30;99.90
22249;DHT22;67538;52.180;5.646;2023-07-08T01:30:23;18.20;99.90
22249;DHT22;67538;52.180;5.646;2023-07-08T01:32:57;18.20;99.90
22249;DHT22;67538;52.180;5.646;2023-07-08T01:35:25;18.20;99.90
22249;DHT22;67538;52.180;5.646;2023-07-08T01:37:55;18.20;99.90
22249;DHT22;67538;52.180;5.646;2023-07-08T01:40:27;18.10;99.90
22249;DHT22;67538;52.180;5.646;2023-07-08T01:42:55;18.20;99.90
22249;DHT22;67538;52.180;5.646;2023-07-08T01:45:25;18.10;99.90
22249;DHT22;67538;52.180;5.646;2023-07-08T01:47:55;18.10;99.90
22249;DHT22;67538;52.180;5.646;2023-07-08T01:50:25;18.10;99.90
22249;DHT22;67538;52.180;5.646;2023-07-08T01:52:53;18.20;99.90
22249;DHT22;67538;52.180;5.646;2023-07-08T01:55:23;18.10;99.90
22249;DHT22;67538;52.180;5.646;2023-07-08T01:57:52;18.10;99.90
22249;DHT22;67538;52.180;5.646;2023-07-08T02:00:20;18.10;99.90
22249;DHT22;67538;52.180;5.646;2023-07-08T02:02:47;18.10;99.90
22249;DHT22;67538;52.180;5.646;2023-07-08T02:05:14;18.10;99.90
22249;DHT22;67538;52.180;5.646;2023-07-08T02:07:42;18.10;99.90
22249;DHT22;67538;52.180;5.646;2023-07-08T02:10:09;18.10;99.90
22249;DHT22;67538;52.180;5.646;2023-07-08T02:12:36;18.10;99.90
22249;DHT22;67538;52.180;5.646;2023-07-08T02:15:08;18.00;99.90
22249;DHT22;67538;52.180;5.646;2023-07-08T02:17:35;18.00;99.90
22249;DHT22;67538;52.180;5.646;2023-07-08T02:20:03;17.90;99.90
22249;DHT22;67538;52.180;5.646;2023-07-08T02:22:30;18.00;99.90
22249;DHT22;67538;52.180;5.646;2023-07-08T02:24:58;17.90;99.90
22249;DHT22;67538;52.180;5.646;2023-07-08T02:27:25;17.90;99.90
22249;DHT22;67538;52.180;5.646;2023-07-08T02:29:52;18.00;99.90
22249;DHT22;67538;52.180;5.646;2023-07-08T02:32:20;18.00;99.90
22249;DHT22;67538;52.180;5.646;2023-07-08T02:34:47;18.00;99.90
22249;DHT22;67538;52.180;5.646;2023-07-08T02:37:17;17.90;99.90
22249;DHT22;67538;52.180;5.646;2023-07-08T02:39:44;17.90;99.90
22249;DHT22;67538;52.180;5.646;2023-07-08T02:42:11;17.90;99.90
22249;DHT22;67538;52.180;5.646;2023-07-08T02:44:38;17.90;99.90
22249;DHT22;67538;52.180;5.646;2023-07-08T02:47:05;17.90;99.90
22249;DHT22;67538;52.180;5.646;2023-07-08T02:49:34;17.90;99.90
22249;DHT22;67538;52.180;5.646;2023-07-08T02:52:01;17.80;99.90
22249;DHT22;67538;52.180;5.646;2023-07-08T02:54:28;17.80;99.90
22249;DHT22;67538;52.180;5.646;2023-07-08T02:56:56;17.70;99.90
22249;DHT22;67538;52.180;5.646;2023-07-08T02:59:23;17.70;99.90
22249;DHT22;67538;52.180;5.646;2023-07-08T03:01:50;17.70;99.90
22249;DHT22;67538;52.180;5.646;2023-07-08T03:04:17;17.70;99.90
22249;DHT22;67538;52.180;5.646;2023-07-08T03:06:50;17.70;99.90
22249;DHT22;67538;52.180;5.646;2023-07-08T03:09:17;17.70;99.90
22249;DHT22;67538;52.180;5.646;2023-07-08T03:11:44;17.70;99.90
22249;DHT22;67538;52.180;5.646;2023-07-08T03:14:12;17.70;99.90
22249;DHT22;67538;52.180;5.646;2023-07-08T03:16:39;17.60;99.90
22249;DHT22;67538;52.180;5.646;2023-07-08T03:19:07;17.60;99.90
22249;DHT22;67538;52.180;5.646;2023-07-08T03:21:34;17.60;99.90
22249;DHT22;67538;52.180;5.646;2023-07-08T03:24:03;17.60;99.90
22249;DHT22;67538;52.180;5.646;2023-07-08T03:26:30;17.50;99.90
22249;DHT22;67538;52.180;5.646;2023-07-08T03:28:57;17.50;99.90
22249;DHT22;67538;52.180;5.646;2023-07-08T03:31:24;17.50;99.90
22249;DHT22;67538;52.180;5.646;2023-07-08T03:33:52;17.50;99.90
22249;DHT22;67538;52.180;5.646;2023-07-08T03:36:19;17.40;99.90
22249;DHT22;67538;52.180;5.646;2023-07-08T03:38:50;17.40;99.90
22249;DHT22;67538;52.180;5.646;2023-07-08T03:41:19;17.30;99.90
22249;DHT22;67538;52.180;5.646;2023-07-08T03:43:47;17.30;99.90
22249;DHT22;67538;52.180;5.646;2023-07-08T03:46:17;17.30;99.90
22249;DHT22;67538;52.180;5.646;2023-07-08T03:48:45;17.30;99.90
22249;DHT22;67538;52.180;5.646;2023-07-08T03:51:23;17.30;99.90
22249;DHT22;67538;52.180;5.646;2023-07-08T03:53:50;17.20;99.90
22249;DHT22;67538;52.180;5.646;2023-07-08T03:56:19;17.20;99.90
22249;DHT22;67538;52.180;5.646;2023-07-08T03:58:46;17.20;99.90
22249;DHT22;67538;52.180;5.646;2023-07-08T04:01:15;17.20;99.90
22249;DHT22;67538;52.180;5.646;2023-07-08T04:03:43;17.10;99.90
22249;DHT22;67538;52.180;5.646;2023-07-08T04:06:10;17.20;99.90
22249;DHT22;67538;52.180;5.646;2023-07-08T04:08:37;17.20;99.90
22249;DHT22;67538;52.180;5.646;2023-07-08T04:11:05;17.10;99.90
22249;DHT22;67538;52.180;5.646;2023-07-08T04:13:33;17.20;99.90
22249;DHT22;67538;52.180;5.646;2023-07-08T04:16:02;17.20;99.90
22249;DHT22;67538;52.180;5.646;2023-07-08T04:18:29;17.30;99.90
22249;DHT22;67538;52.180;5.646;2023-07-08T04:20:57;17.30;99.90
22249;DHT22;67538;52.180;5.646;2023-07-08T04:23:25;17.30;99.90
22249;DHT22;67538;52.180;5.646;2023-07-08T04:25:54;17.40;99.90
22249;DHT22;67538;52.180;5.646;2023-07-08T04:28:23;17.40;99.90
22249;DHT22;67538;52.180;5.646;2023-07-08T04:30:51;17.40;99.90
22249;DHT22;67538;52.180;5.646;2023-07-08T04:33:18;17.50;99.90
22249;DHT22;67538;52.180;5.646;2023-07-08T04:35:45;17.50;99.90
22249;DHT22;67538;52.180;5.646;2023-07-08T04:38:17;17.60;99.90
22249;DHT22;67538;52.180;5.646;2023-07-08T04:40:47;17.60;99.90
22249;DHT22;67538;52.180;5.646;2023-07-08T04:43:14;17.70;99.90
22249;DHT22;67538;52.180;5.646;2023-07-08T04:45:43;17.80;99.90
22249;DHT22;67538;52.180;5.646;2023-07-08T04:48:13;17.80;99.90
22249;DHT22;67538;52.180;5.646;2023-07-08T04:50:41;17.90;99.90
22249;DHT22;67538;52.180;5.646;2023-07-08T04:53:09;18.00;99.90
22249;DHT22;67538;52.180;5.646;2023-07-08T04:55:38;18.10;99.90
22249;DHT22;67538;52.180;5.646;2023-07-08T04:58:06;18.20;99.90
22249;DHT22;67538;52.180;5.646;2023-07-08T05:00:33;18.30;99.90
22249;DHT22;67538;52.180;5.646;2023-07-08T05:03:00;18.40;99.90
22249;DHT22;67538;52.180;5.646;2023-07-08T05:05:28;18.50;99.90
22249;DHT22;67538;52.180;5.646;2023-07-08T05:07:56;18.60;99.90
22249;DHT22;67538;52.180;5.646;2023-07-08T05:10:23;18.70;99.90
22249;DHT22;67538;52.180;5.646;2023-07-08T05:12:50;18.80;99.90
22249;DHT22;67538;52.180;5.646;2023-07-08T05:15:17;18.80;99.90
22249;DHT22;67538;52.180;5.646;2023-07-08T05:17:44;18.90;99.90
22249;DHT22;67538;52.180;5.646;2023-07-08T05:20:13;19.00;99.90
22249;DHT22;67538;52.180;5.646;2023-07-08T05:22:42;19.10;99.90
22249;DHT22;67538;52.180;5.646;2023-07-08T05:25:10;19.20;99.90
22249;DHT22;67538;52.180;5.646;2023-07-08T05:27:37;19.20;99.90
22249;DHT22;67538;52.180;5.646;2023-07-08T05:30:06;19.40;99.90
22249;DHT22;67538;52.180;5.646;2023-07-08T05:32:34;19.40;99.90
22249;DHT22;67538;52.180;5.646;2023-07-08T05:35:01;19.50;99.90
22249;DHT22;67538;52.180;5.646;2023-07-08T05:37:28;19.60;99.90
22249;DHT22;67538;52.180;5.646;2023-07-08T05:39:57;19.70;99.90
22249;DHT22;67538;52.180;5.646;2023-07-08T05:42:27;19.80;99.90
22249;DHT22;67538;52.180;5.646;2023-07-08T05:44:54;19.90;99.90
22249;DHT22;67538;52.180;5.646;2023-07-08T05:47:22;19.90;99.90
22249;DHT22;67538;52.180;5.646;2023-07-08T05:49:49;20.10;99.90
22249;DHT22;67538;52.180;5.646;2023-07-08T05:52:16;20.10;99.90
22249;DHT22;67538;52.180;5.646;2023-07-08T05:54:43;20.30;99.90
22249;DHT22;67538;52.180;5.646;2023-07-08T05:57:12;20.40;99.90
22249;DHT22;67538;52.180;5.646;2023-07-08T05:59:39;20.50;99.90
22249;DHT22;67538;52.180;5.646;2023-07-08T06:02:11;20.60;99.90
22249;DHT22;67538;52.180;5.646;2023-07-08T06:04:38;20.60;99.90
22249;DHT22;67538;52.180;5.646;2023-07-08T06:07:06;20.70;99.90
22249;DHT22;67538;52.180;5.646;2023-07-08T06:09:33;20.80;99.90
22249;DHT22;67538;52.180;5.646;2023-07-08T06:12:00;20.90;99.90
22249;DHT22;67538;52.180;5.646;2023-07-08T06:14:29;21.10;99.90
22249;DHT22;67538;52.180;5.646;2023-07-08T06:16:58;21.20;99.90
22249;DHT22;67538;52.180;5.646;2023-07-08T06:19:25;21.20;99.90
22249;DHT22;67538;52.180;5.646;2023-07-08T06:21:52;21.40;99.90
22249;DHT22;67538;52.180;5.646;2023-07-08T06:24:19;21.50;99.90
22249;DHT22;67538;52.180;5.646;2023-07-08T06:26:46;21.50;99.90
22249;DHT22;67538;52.180;5.646;2023-07-08T06:29:13;21.60;99.90
22249;DHT22;67538;52.180;5.646;2023-07-08T06:31:43;21.70;99.90
22249;DHT22;67538;52.180;5.646;2023-07-08T06:34:10;21.70;99.90
22249;DHT22;67538;52.180;5.646;2023-07-08T06:36:37;21.80;99.90
22249;DHT22;67538;52.180;5.646;2023-07-08T06:39:04;21.90;99.90
22249;DHT22;67538;52.180;5.646;2023-07-08T06:41:33;21.90;99.90
22249;DHT22;67538;52.180;5.646;2023-07-08T06:44:00;22.00;99.90
22249;DHT22;67538;52.180;5.646;2023-07-08T06:46:28;22.00;99.90
22249;DHT22;67538;52.180;5.646;2023-07-08T06:48:56;22.20;99.90
22249;DHT22;67538;52.180;5.646;2023-07-08T06:51:24;22.50;99.90
22249;DHT22;67538;52.180;5.646;2023-07-08T06:53:51;24.10;99.90
22249;DHT22;67538;52.180;5.646;2023-07-08T06:56:18;25.90;99.90
22249;DHT22;67538;52.180;5.646;2023-07-08T06:58:46;26.40;99.90
22249;DHT22;67538;52.180;5.646;2023-07-08T07:01:13;25.60;99.90
22249;DHT22;67538;52.180;5.646;2023-07-08T07:03:40;24.70;99.90
22249;DHT22;67538;52.180;5.646;2023-07-08T07:06:09;24.20;99.90
22249;DHT22;67538;52.180;5.646;2023-07-08T07:08:36;23.90;99.90
22249;DHT22;67538;52.180;5.646;2023-07-08T07:11:03;23.70;99.90
22249;DHT22;67538;52.180;5.646;2023-07-08T07:13:30;24.00;99.90
22249;DHT22;67538;52.180;5.646;2023-07-08T07:15:58;24.00;99.90
22249;DHT22;67538;52.180;5.646;2023-07-08T07:18:25;24.00;99.90
22249;DHT22;67538;52.180;5.646;2023-07-08T07:20:54;24.40;99.90
22249;DHT22;67538;52.180;5.646;2023-07-08T07:23:22;24.40;99.90
22249;DHT22;67538;52.180;5.646;2023-07-08T07:25:50;24.30;99.90
22249;DHT22;67538;52.180;5.646;2023-07-08T07:28:17;24.40;99.90
22249;DHT22;67538;52.180;5.646;2023-07-08T07:30:45;24.50;99.90
22249;DHT22;67538;52.180;5.646;2023-07-08T07:33:13;24.50;99.90
22249;DHT22;67538;52.180;5.646;2023-07-08T07:35:46;24.50;99.90
22249;DHT22;67538;52.180;5.646;2023-07-08T07:38:14;24.60;99.90
22249;DHT22;67538;52.180;5.646;2023-07-08T07:40:43;24.60;99.90
22249;DHT22;67538;52.180;5.646;2023-07-08T07:43:10;24.70;99.90
22249;DHT22;67538;52.180;5.646;2023-07-08T07:45:37;24.80;99.90
22249;DHT22;67538;52.180;5.646;2023-07-08T07:48:05;25.00;99.90
22249;DHT22;67538;52.180;5.646;2023-07-08T07:50:32;25.10;99.90
22249;DHT22;67538;52.180;5.646;2023-07-08T07:53:00;25.20;99.90
22249;DHT22;67538;52.180;5.646;2023-07-08T07:55:27;25.30;99.90
22249;DHT22;67538;52.180;5.646;2023-07-08T07:57:55;25.40;99.90
22249;DHT22;67538;52.180;5.646;2023-07-08T08:00:22;25.80;99.90
22249;DHT22;67538;52.180;5.646;2023-07-08T08:02:50;25.80;99.90
22249;DHT22;67538;52.180;5.646;2023-07-08T08:05:17;25.80;99.90
22249;DHT22;67538;52.180;5.646;2023-07-08T08:07:44;25.90;99.90
22249;DHT22;67538;52.180;5.646;2023-07-08T08:10:13;26.20;99.90
22249;DHT22;67538;52.180;5.646;2023-07-08T08:12:41;26.40;99.90
22249;DHT22;67538;52.180;5.646;2023-07-08T08:15:10;26.60;99.90
22249;DHT22;67538;52.180;5.646;2023-07-08T08:17:37;27.00;99.90
22249;DHT22;67538;52.180;5.646;2023-07-08T08:20:05;27.00;99.90
22249;DHT22;67538;52.180;5.646;2023-07-08T08:22:33;27.00;99.90
22249;DHT22;67538;52.180;5.646;2023-07-08T08:25:00;27.00;99.90
22249;DHT22;67538;52.180;5.646;2023-07-08T08:27:27;27.00;99.90
22249;DHT22;67538;52.180;5.646;2023-07-08T08:29:54;27.10;99.90
22249;DHT22;67538;52.180;5.646;2023-07-08T08:32:23;27.20;99.90
22249;DHT22;67538;52.180;5.646;2023-07-08T08:34:50;27.30;99.90
22249;DHT22;67538;52.180;5.646;2023-07-08T08:37:17;27.60;99.90
22249;DHT22;67538;52.180;5.646;2023-07-08T08:39:44;27.60;99.90
22249;DHT22;67538;52.180;5.646;2023-07-08T08:42:18;27.50;99.90
22249;DHT22;67538;52.180;5.646;2023-07-08T08:44:47;27.50;99.90
22249;DHT22;67538;52.180;5.646;2023-07-08T08:47:25;27.50;99.90
22249;DHT22;67538;52.180;5.646;2023-07-08T08:50:00;27.60;99.90
22249;DHT22;67538;52.180;5.646;2023-07-08T08:52:28;27.60;99.90
22249;DHT22;67538;52.180;5.646;2023-07-08T08:54:55;27.70;99.90
22249;DHT22;67538;52.180;5.646;2023-07-08T08:57:32;27.80;99.90
22249;DHT22;67538;52.180;5.646;2023-07-08T09:00:00;27.80;99.90
22249;DHT22;67538;52.180;5.646;2023-07-08T09:02:36;27.90;99.90
22249;DHT22;67538;52.180;5.646;2023-07-08T09:05:06;27.90;99.90
22249;DHT22;67538;52.180;5.646;2023-07-08T09:07:39;27.90;99.90
22249;DHT22;67538;52.180;5.646;2023-07-08T09:10:15;28.00;99.90
22249;DHT22;67538;52.180;5.646;2023-07-08T09:12:46;28.00;99.90
22249;DHT22;67538;52.180;5.646;2023-07-08T09:15:17;28.10;99.90
22249;DHT22;67538;52.180;5.646;2023-07-08T09:17:46;28.20;99.90
22249;DHT22;67538;52.180;5.646;2023-07-08T09:20:22;28.30;99.90
22249;DHT22;67538;52.180;5.646;2023-07-08T09:22:55;28.20;99.90
22249;DHT22;67538;52.180;5.646;2023-07-08T09:25:26;28.20;99.90
22249;DHT22;67538;52.180;5.646;2023-07-08T09:27:55;28.30;99.90
22249;DHT22;67538;52.180;5.646;2023-07-08T09:30:23;28.30;99.90
22249;DHT22;67538;52.180;5.646;2023-07-08T09:32:53;28.20;99.90
22249;DHT22;67538;52.180;5.646;2023-07-08T09:35:23;28.30;99.90
22249;DHT22;67538;52.180;5.646;2023-07-08T09:37:50;28.30;99.90
22249;DHT22;67538;52.180;5.646;2023-07-08T09:40:19;28.50;99.90
22249;DHT22;67538;52.180;5.646;2023-07-08T09:42:52;28.60;99.90
22249;DHT22;67538;52.180;5.646;2023-07-08T09:45:23;28.70;99.90
22249;DHT22;67538;52.180;5.646;2023-07-08T09:47:54;28.90;99.90
22249;DHT22;67538;52.180;5.646;2023-07-08T09:50:23;29.00;99.90
22249;DHT22;67538;52.180;5.646;2023-07-08T09:52:52;29.10;99.90
22249;DHT22;67538;52.180;5.646;2023-07-08T09:55:20;29.00;99.90
22249;DHT22;67538;52.180;5.646;2023-07-08T09:57:50;28.90;99.90
22249;DHT22;67538;52.180;5.646;2023-07-08T10:00:25;28.90;99.90
22249;DHT22;67538;52.180;5.646;2023-07-08T10:02:56;28.90;99.90
22249;DHT22;67538;52.180;5.646;2023-07-08T10:05:27;29.00;99.90
22249;DHT22;67538;52.180;5.646;2023-07-08T10:07:56;29.00;99.90
22249;DHT22;67538;52.180;5.646;2023-07-08T10:10:34;29.00;99.90
22249;DHT22;67538;52.180;5.646;2023-07-08T10:13:03;29.10;99.90
22249;DHT22;67538;52.180;5.646;2023-07-08T10:15:35;29.30;99.90
22249;DHT22;67538;52.180;5.646;2023-07-08T10:18:10;29.30;99.90
22249;DHT22;67538;52.180;5.646;2023-07-08T10:20:47;29.30;99.90
22249;DHT22;67538;52.180;5.646;2023-07-08T10:23:24;29.10;99.90
22249;DHT22;67538;52.180;5.646;2023-07-08T10:26:00;29.20;99.90
22249;DHT22;67538;52.180;5.646;2023-07-08T10:28:38;29.30;99.90
22249;DHT22;67538;52.180;5.646;2023-07-08T10:31:18;29.50;99.90
22249;DHT22;67538;52.180;5.646;2023-07-08T10:34:11;29.60;99.90
22249;DHT22;67538;52.180;5.646;2023-07-08T10:36:47;29.50;99.90
22249;DHT22;67538;52.180;5.646;2023-07-08T10:39:44;29.50;99.90
22249;DHT22;67538;52.180;5.646;2023-07-08T10:42:23;29.50;99.90
22249;DHT22;67538;52.180;5.646;2023-07-08T10:44:58;29.60;99.90
22249;DHT22;67538;52.180;5.646;2023-07-08T10:47:45;29.70;99.90
22249;DHT22;67538;52.180;5.646;2023-07-08T10:50:46;29.70;99.90
22249;DHT22;67538;52.180;5.646;2023-07-08T10:53:38;29.70;99.90
22249;DHT22;67538;52.180;5.646;2023-07-08T10:56:14;29.70;99.90
22249;DHT22;67538;52.180;5.646;2023-07-08T10:58:53;29.80;99.90
22249;DHT22;67538;52.180;5.646;2023-07-08T11:01:33;29.80;99.90
22249;DHT22;67538;52.180;5.646;2023-07-08T11:04:11;29.90;99.90
22249;DHT22;67538;52.180;5.646;2023-07-08T11:06:48;30.00;99.90
22249;DHT22;67538;52.180;5.646;2023-07-08T11:09:21;30.10;99.90
22249;DHT22;67538;52.180;5.646;2023-07-08T11:11:55;30.00;99.90
22249;DHT22;67538;52.180;5.646;2023-07-08T11:14:26;30.00;99.90
22249;DHT22;67538;52.180;5.646;2023-07-08T11:17:08;30.00;99.90
22249;DHT22;67538;52.180;5.646;2023-07-08T11:19:40;30.10;99.90
22249;DHT22;67538;52.180;5.646;2023-07-08T11:22:12;30.10;99.90
22249;DHT22;67538;52.180;5.646;2023-07-08T11:24:44;30.10;99.90
22249;DHT22;67538;52.180;5.646;2023-07-08T11:27:16;30.10;99.90
22249;DHT22;67538;52.180;5.646;2023-07-08T11:29:53;30.20;99.90
22249;DHT22;67538;52.180;5.646;2023-07-08T11:32:23;30.20;99.90
22249;DHT22;67538;52.180;5.646;2023-07-08T11:34:52;30.30;99.90
22249;DHT22;67538;52.180;5.646;2023-07-08T11:37:22;30.50;99.90
22249;DHT22;67538;52.180;5.646;2023-07-08T11:39:54;30.40;99.90
22249;DHT22;67538;52.180;5.646;2023-07-08T11:42:25;30.40;99.90
22249;DHT22;67538;52.180;5.646;2023-07-08T11:44:58;30.40;99.90
22249;DHT22;67538;52.180;5.646;2023-07-08T11:47:32;30.40;99.90
22249;DHT22;67538;52.180;5.646;2023-07-08T11:50:02;30.60;99.90
22249;DHT22;67538;52.180;5.646;2023-07-08T11:52:31;30.70;99.90
22249;DHT22;67538;52.180;5.646;2023-07-08T11:55:08;30.70;99.90
22249;DHT22;67538;52.180;5.646;2023-07-08T11:57:42;30.70;99.90
22249;DHT22;67538;52.180;5.646;2023-07-08T12:00:18;30.80;99.90
22249;DHT22;67538;52.180;5.646;2023-07-08T12:02:52;30.70;99.90
22249;DHT22;67538;52.180;5.646;2023-07-08T12:05:30;30.70;99.90
22249;DHT22;67538;52.180;5.646;2023-07-08T12:08:00;30.70;99.90
22249;DHT22;67538;52.180;5.646;2023-07-08T12:10:32;30.70;99.90
22249;DHT22;67538;52.180;5.646;2023-07-08T12:13:01;30.80;99.90
22249;DHT22;67538;52.180;5.646;2023-07-08T12:15:32;30.90;99.90
22249;DHT22;67538;52.180;5.646;2023-07-08T12:18:01;30.90;99.90
22249;DHT22;67538;52.180;5.646;2023-07-08T12:20:32;30.90;99.90
22249;DHT22;67538;52.180;5.646;2023-07-08T12:23:01;30.90;99.90
22249;DHT22;67538;52.180;5.646;2023-07-08T12:25:30;30.90;99.90
22249;DHT22;67538;52.180;5.646;2023-07-08T12:28:00;31.00;99.90
22249;DHT22;67538;52.180;5.646;2023-07-08T12:30:29;31.10;99.90
22249;DHT22;67538;52.180;5.646;2023-07-08T12:32:57;31.20;99.90
22249;DHT22;67538;52.180;5.646;2023-07-08T12:35:28;31.30;99.90
22249;DHT22;67538;52.180;5.646;2023-07-08T12:37:58;31.20;99.90
22249;DHT22;67538;52.180;5.646;2023-07-08T12:40:29;31.20;99.90
22249;DHT22;67538;52.180;5.646;2023-07-08T12:42:57;31.20;99.90
22249;DHT22;67538;52.180;5.646;2023-07-08T12:45:28;31.30;99.90
22249;DHT22;67538;52.180;5.646;2023-07-08T12:47:56;31.20;99.90
22249;DHT22;67538;52.180;5.646;2023-07-08T12:50:23;31.20;99.90
22249;DHT22;67538;52.180;5.646;2023-07-08T12:52:51;31.20;99.90
22249;DHT22;67538;52.180;5.646;2023-07-08T12:55:18;31.20;99.90
22249;DHT22;67538;52.180;5.646;2023-07-08T12:57:48;31.30;99.90
22249;DHT22;67538;52.180;5.646;2023-07-08T13:00:30;31.30;99.90
22249;DHT22;67538;52.180;5.646;2023-07-08T13:02:59;31.30;99.90
22249;DHT22;67538;52.180;5.646;2023-07-08T13:05:29;31.20;99.90
22249;DHT22;67538;52.180;5.646;2023-07-08T13:07:57;31.20;99.90
22249;DHT22;67538;52.180;5.646;2023-07-08T13:10:28;31.20;99.90
22249;DHT22;67538;52.180;5.646;2023-07-08T13:12:59;31.20;99.90
22249;DHT22;67538;52.180;5.646;2023-07-08T13:15:31;31.30;99.90
22249;DHT22;67538;52.180;5.646;2023-07-08T13:18:01;31.30;99.90
22249;DHT22;67538;52.180;5.646;2023-07-08T13:20:29;31.30;99.90
22249;DHT22;67538;52.180;5.646;2023-07-08T13:23:00;31.30;99.90
22249;DHT22;67538;52.180;5.646;2023-07-08T13:25:29;31.30;99.90
22249;DHT22;67538;52.180;5.646;2023-07-08T13:28:00;31.40;99.90
22249;DHT22;67538;52.180;5.646;2023-07-08T13:30:30;31.40;99.90
22249;DHT22;67538;52.180;5.646;2023-07-08T13:32:59;31.40;99.90
22249;DHT22;67538;52.180;5.646;2023-07-08T13:35:34;31.40;99.90
22249;DHT22;67538;52.180;5.646;2023-07-08T13:38:02;31.50;99.90
22249;DHT22;67538;52.180;5.646;2023-07-08T13:40:30;31.60;99.90
22249;DHT22;67538;52.180;5.646;2023-07-08T13:42:59;31.60;99.90
22249;DHT22;67538;52.180;5.646;2023-07-08T13:45:30;31.60;99.90
22249;DHT22;67538;52.180;5.646;2023-07-08T13:48:11;31.60;99.90
22249;DHT22;67538;52.180;5.646;2023-07-08T13:50:45;31.70;99.90
22249;DHT22;67538;52.180;5.646;2023-07-08T13:53:20;31.70;99.90
22249;DHT22;67538;52.180;5.646;2023-07-08T13:55:49;31.70;99.90
22249;DHT22;67538;52.180;5.646;2023-07-08T13:58:27;31.70;99.90
22249;DHT22;67538;52.180;5.646;2023-07-08T14:00:55;31.70;99.90
22249;DHT22;67538;52.180;5.646;2023-07-08T14:03:22;31.70;99.90
22249;DHT22;67538;52.180;5.646;2023-07-08T14:05:50;31.70;99.90
22249;DHT22;67538;52.180;5.646;2023-07-08T14:08:17;31.80;99.90
22249;DHT22;67538;52.180;5.646;2023-07-08T14:10:45;31.80;99.90
22249;DHT22;67538;52.180;5.646;2023-07-08T14:13:12;31.70;99.90
22249;DHT22;67538;52.180;5.646;2023-07-08T14:15:42;31.70;99.90
22249;DHT22;67538;52.180;5.646;2023-07-08T14:18:10;31.70;99.90
22249;DHT22;67538;52.180;5.646;2023-07-08T14:20:37;31.70;99.90
22249;DHT22;67538;52.180;5.646;2023-07-08T14:23:05;31.80;99.90
22249;DHT22;67538;52.180;5.646;2023-07-08T14:25:32;31.80;99.90
22249;DHT22;67538;52.180;5.646;2023-07-08T14:27:59;31.80;99.90
22249;DHT22;67538;52.180;5.646;2023-07-08T14:30:26;31.90;99.90
22249;DHT22;67538;52.180;5.646;2023-07-08T14:32:55;31.90;99.90
22249;DHT22;67538;52.180;5.646;2023-07-08T14:35:24;31.90;99.90
22249;DHT22;67538;52.180;5.646;2023-07-08T14:37:51;31.90;99.90
22249;DHT22;67538;52.180;5.646;2023-07-08T14:40:26;32.00;99.90
22249;DHT22;67538;52.180;5.646;2023-07-08T14:42:58;32.00;99.90
22249;DHT22;67538;52.180;5.646;2023-07-08T14:45:27;32.20;99.90
22249;DHT22;67538;52.180;5.646;2023-07-08T14:47:56;32.20;99.90
22249;DHT22;67538;52.180;5.646;2023-07-08T14:50:23;32.20;99.90
22249;DHT22;67538;52.180;5.646;2023-07-08T14:52:55;32.10;99.90
22249;DHT22;67538;52.180;5.646;2023-07-08T14:55:22;32.20;99.90
22249;DHT22;67538;52.180;5.646;2023-07-08T14:57:49;32.20;99.90
22249;DHT22;67538;52.180;5.646;2023-07-08T15:00:18;32.30;99.90
22249;DHT22;67538;52.180;5.646;2023-07-08T15:02:47;32.30;99.90
22249;DHT22;67538;52.180;5.646;2023-07-08T15:05:18;32.20;99.90
22249;DHT22;67538;52.180;5.646;2023-07-08T15:07:48;32.10;99.90
22249;DHT22;67538;52.180;5.646;2023-07-08T15:10:16;32.00;99.90
22249;DHT22;67538;52.180;5.646;2023-07-08T15:12:44;31.90;99.90
22249;DHT22;67538;52.180;5.646;2023-07-08T15:15:16;31.80;99.90
22249;DHT22;67538;52.180;5.646;2023-07-08T15:17:44;31.80;99.90
22249;DHT22;67538;52.180;5.646;2023-07-08T15:20:12;31.90;99.90
22249;DHT22;67538;52.180;5.646;2023-07-08T15:22:42;32.00;99.90
22249;DHT22;67538;52.180;5.646;2023-07-08T15:25:10;31.90;99.90
22249;DHT22;67538;52.180;5.646;2023-07-08T15:27:39;31.70;99.90
22249;DHT22;67538;52.180;5.646;2023-07-08T15:30:15;31.60;99.90
22249;DHT22;67538;52.180;5.646;2023-07-08T15:32:44;31.60;99.90
22249;DHT22;67538;52.180;5.646;2023-07-08T15:35:13;31.60;99.90
22249;DHT22;67538;52.180;5.646;2023-07-08T15:37:43;31.70;99.90
22249;DHT22;67538;52.180;5.646;2023-07-08T15:40:13;31.80;99.90
22249;DHT22;67538;52.180;5.646;2023-07-08T15:42:41;31.90;99.90
22249;DHT22;67538;52.180;5.646;2023-07-08T15:45:13;32.00;99.90